sensor_id;sensor_type;location;lat;lon;timestamp;P1;durP1;ratioP1;P2;durP2;ratioP2
25111;SDS011;13092;51.996;4.458;2023-03-30T00:00:04;7.07;;;3.00;;
25111;SDS011;13092;51.996;4.458;2023-03-30T00:02:42;7.70;;;3.15;;
25111;SDS011;13092;51.996;4.458;2023-03-30T00:05:11;8.30;;;3.65;;
25111;SDS011;13092;51.996;4.458;2023-03-30T00:07:39;6.35;;;3.15;;
25111;SDS011;13092;51.996;4.458;2023-03-30T00:10:09;5.07;;;3.05;;
25111;SDS011;13092;51.996;4.458;2023-03-30T00:12:38;7.55;;;3.15;;
25111;SDS011;13092;51.996;4.458;2023-03-30T00:15:10;6.90;;;3.30;;
25111;SDS011;13092;51.996;4.458;2023-03-30T00:17:40;8.52;;;3.50;;
25111;SDS011;13092;51.996;4.458;2023-03-30T00:20:11;7.38;;;4.55;;
25111;SDS011;13092;51.996;4.458;2023-03-30T00:22:40;5.85;;;4.38;;
25111;SDS011;13092;51.996;4.458;2023-03-30T00:25:12;8.35;;;5.03;;
25111;SDS011;13092;51.996;4.458;2023-03-30T00:27:42;7.18;;;5.72;;
25111;SDS011;13092;51.996;4.458;2023-03-30T00:30:12;9.20;;;5.20;;
25111;SDS011;13092;51.996;4.458;2023-03-30T00:32:42;5.97;;;5.07;;
25111;SDS011;13092;51.996;4.458;2023-03-30T00:35:10;7.03;;;4.95;;
25111;SDS011;13092;51.996;4.458;2023-03-30T00:37:39;6.32;;;5.07;;
25111;SDS011;13092;51.996;4.458;2023-03-30T00:40:13;12.25;;;5.35;;
25111;SDS011;13092;51.996;4.458;2023-03-30T00:42:43;8.70;;;5.72;;
25111;SDS011;13092;51.996;4.458;2023-03-30T00:45:21;7.65;;;5.60;;
25111;SDS011;13092;51.996;4.458;2023-03-30T00:47:59;10.07;;;6.00;;
25111;SDS011;13092;51.996;4.458;2023-03-30T00:50:32;8.20;;;5.25;;
25111;SDS011;13092;51.996;4.458;2023-03-30T00:53:06;7.85;;;5.57;;
25111;SDS011;13092;51.996;4.458;2023-03-30T00:55:37;6.60;;;5.35;;
25111;SDS011;13092;51.996;4.458;2023-03-30T00:58:07;8.70;;;5.70;;
25111;SDS011;13092;51.996;4.458;2023-03-30T01:00:38;9.07;;;6.13;;
25111;SDS011;13092;51.996;4.458;2023-03-30T01:03:09;8.25;;;5.15;;
25111;SDS011;13092;51.996;4.458;2023-03-30T01:05:48;7.70;;;6.15;;
25111;SDS011;13092;51.996;4.458;2023-03-30T01:08:18;10.15;;;5.90;;
25111;SDS011;13092;51.996;4.458;2023-03-30T01:10:49;10.20;;;6.22;;
25111;SDS011;13092;51.996;4.458;2023-03-30T01:13:18;6.78;;;5.50;;
25111;SDS011;13092;51.996;4.458;2023-03-30T01:15:51;7.43;;;5.90;;
25111;SDS011;13092;51.996;4.458;2023-03-30T01:18:35;10.05;;;5.60;;
25111;SDS011;13092;51.996;4.458;2023-03-30T01:30:36;12.38;;;8.10;;
25111;SDS011;13092;51.996;4.458;2023-03-30T01:33:34;12.15;;;9.88;;
25111;SDS011;13092;51.996;4.458;2023-03-30T01:39:45;10.55;;;9.45;;
25111;SDS011;13092;51.996;4.458;2023-03-30T01:42:21;11.75;;;10.02;;
25111;SDS011;13092;51.996;4.458;2023-03-30T01:44:55;12.88;;;11.13;;
25111;SDS011;13092;51.996;4.458;2023-03-30T01:47:32;14.60;;;13.10;;
25111;SDS011;13092;51.996;4.458;2023-03-30T01:50:05;15.38;;;14.07;;
25111;SDS011;13092;51.996;4.458;2023-03-30T01:52:38;20.75;;;15.65;;
25111;SDS011;13092;51.996;4.458;2023-03-30T01:55:15;17.13;;;15.73;;
25111;SDS011;13092;51.996;4.458;2023-03-30T01:57:48;17.77;;;16.38;;
25111;SDS011;13092;51.996;4.458;2023-03-30T02:00:22;18.90;;;17.30;;
25111;SDS011;13092;51.996;4.458;2023-03-30T02:02:54;20.15;;;18.33;;
25111;SDS011;13092;51.996;4.458;2023-03-30T02:05:26;20.90;;;19.08;;
25111;SDS011;13092;51.996;4.458;2023-03-30T02:07:58;22.73;;;20.92;;
25111;SDS011;13092;51.996;4.458;2023-03-30T02:10:32;24.15;;;22.33;;
25111;SDS011;13092;51.996;4.458;2023-03-30T02:13:02;26.35;;;24.23;;
25111;SDS011;13092;51.996;4.458;2023-03-30T02:15:33;27.15;;;25.20;;
25111;SDS011;13092;51.996;4.458;2023-03-30T02:18:04;29.02;;;26.83;;
25111;SDS011;13092;51.996;4.458;2023-03-30T02:20:32;31.42;;;29.27;;
25111;SDS011;13092;51.996;4.458;2023-03-30T02:23:02;32.22;;;29.75;;
25111;SDS011;13092;51.996;4.458;2023-03-30T02:25:33;33.50;;;31.00;;
25111;SDS011;13092;51.996;4.458;2023-03-30T02:28:04;34.50;;;31.95;;
25111;SDS011;13092;51.996;4.458;2023-03-30T02:30:35;35.50;;;32.50;;
25111;SDS011;13092;51.996;4.458;2023-03-30T02:33:07;36.67;;;33.53;;
25111;SDS011;13092;51.996;4.458;2023-03-30T02:35:49;35.55;;;32.95;;
25111;SDS011;13092;51.996;4.458;2023-03-30T02:38:43;36.60;;;33.58;;
25111;SDS011;13092;51.996;4.458;2023-03-30T02:41:30;36.67;;;34.00;;
25111;SDS011;13092;51.996;4.458;2023-03-30T02:44:33;34.92;;;32.42;;
25111;SDS011;13092;51.996;4.458;2023-03-30T02:47:11;36.42;;;33.55;;
25111;SDS011;13092;51.996;4.458;2023-03-30T02:49:49;36.30;;;33.40;;
25111;SDS011;13092;51.996;4.458;2023-03-30T02:52:27;36.72;;;34.00;;
25111;SDS011;13092;51.996;4.458;2023-03-30T02:55:10;37.08;;;33.90;;
25111;SDS011;13092;51.996;4.458;2023-03-30T02:57:48;36.78;;;34.03;;
25111;SDS011;13092;51.996;4.458;2023-03-30T03:00:24;36.60;;;34.00;;
25111;SDS011;13092;51.996;4.458;2023-03-30T03:02:56;36.55;;;33.83;;
25111;SDS011;13092;51.996;4.458;2023-03-30T03:05:31;35.95;;;33.25;;
25111;SDS011;13092;51.996;4.458;2023-03-30T03:08:00;35.17;;;32.58;;
25111;SDS011;13092;51.996;4.458;2023-03-30T03:10:29;35.80;;;33.25;;
25111;SDS011;13092;51.996;4.458;2023-03-30T03:13:03;35.05;;;32.58;;
25111;SDS011;13092;51.996;4.458;2023-03-30T03:15:31;35.55;;;32.83;;
25111;SDS011;13092;51.996;4.458;2023-03-30T03:18:03;34.05;;;31.58;;
25111;SDS011;13092;51.996;4.458;2023-03-30T03:20:31;34.90;;;32.20;;
25111;SDS011;13092;51.996;4.458;2023-03-30T03:22:59;35.38;;;32.88;;
25111;SDS011;13092;51.996;4.458;2023-03-30T03:25:28;36.10;;;33.33;;
25111;SDS011;13092;51.996;4.458;2023-03-30T03:27:58;35.53;;;32.90;;
25111;SDS011;13092;51.996;4.458;2023-03-30T03:30:34;35.88;;;33.13;;
25111;SDS011;13092;51.996;4.458;2023-03-30T03:33:02;36.17;;;33.25;;
25111;SDS011;13092;51.996;4.458;2023-03-30T03:35:31;37.13;;;34.00;;
25111;SDS011;13092;51.996;4.458;2023-03-30T03:37:59;37.72;;;34.83;;
25111;SDS011;13092;51.996;4.458;2023-03-30T03:40:28;38.38;;;35.22;;
25111;SDS011;13092;51.996;4.458;2023-03-30T03:42:56;37.72;;;34.80;;
25111;SDS011;13092;51.996;4.458;2023-03-30T03:45:26;38.42;;;34.97;;
25111;SDS011;13092;51.996;4.458;2023-03-30T03:47:54;39.22;;;35.45;;
25111;SDS011;13092;51.996;4.458;2023-03-30T03:50:24;39.38;;;35.88;;
25111;SDS011;13092;51.996;4.458;2023-03-30T03:52:52;39.05;;;35.85;;
25111;SDS011;13092;51.996;4.458;2023-03-30T03:55:21;38.70;;;35.17;;
25111;SDS011;13092;51.996;4.458;2023-03-30T03:57:52;39.60;;;36.03;;
25111;SDS011;13092;51.996;4.458;2023-03-30T04:00:20;39.30;;;35.80;;
25111;SDS011;13092;51.996;4.458;2023-03-30T04:02:50;39.47;;;35.50;;
25111;SDS011;13092;51.996;4.458;2023-03-30T04:05:18;38.60;;;34.90;;
25111;SDS011;13092;51.996;4.458;2023-03-30T04:07:47;40.20;;;35.05;;
25111;SDS011;13092;51.996;4.458;2023-03-30T04:10:15;39.17;;;35.17;;
25111;SDS011;13092;51.996;4.458;2023-03-30T04:12:43;38.30;;;34.70;;
25111;SDS011;13092;51.996;4.458;2023-03-30T04:15:11;38.30;;;34.63;;
25111;SDS011;13092;51.996;4.458;2023-03-30T04:17:40;39.78;;;35.63;;
25111;SDS011;13092;51.996;4.458;2023-03-30T04:20:16;39.75;;;34.92;;
25111;SDS011;13092;51.996;4.458;2023-03-30T04:22:44;37.75;;;33.88;;
25111;SDS011;13092;51.996;4.458;2023-03-30T04:25:15;39.08;;;33.55;;
25111;SDS011;13092;51.996;4.458;2023-03-30T04:27:46;41.20;;;33.17;;
25111;SDS011;13092;51.996;4.458;2023-03-30T04:30:16;37.78;;;33.70;;
25111;SDS011;13092;51.996;4.458;2023-03-30T04:32:45;36.38;;;32.47;;
25111;SDS011;13092;51.996;4.458;2023-03-30T04:35:21;39.58;;;32.67;;
25111;SDS011;13092;51.996;4.458;2023-03-30T04:37:49;35.45;;;31.52;;
25111;SDS011;13092;51.996;4.458;2023-03-30T04:40:17;36.78;;;32.00;;
25111;SDS011;13092;51.996;4.458;2023-03-30T04:42:45;34.95;;;31.23;;
25111;SDS011;13092;51.996;4.458;2023-03-30T04:45:15;35.92;;;30.70;;
25111;SDS011;13092;51.996;4.458;2023-03-30T04:47:44;40.72;;;32.25;;
25111;SDS011;13092;51.996;4.458;2023-03-30T04:50:13;38.80;;;32.80;;
25111;SDS011;13092;51.996;4.458;2023-03-30T04:52:43;36.50;;;31.58;;
25111;SDS011;13092;51.996;4.458;2023-03-30T04:55:11;37.65;;;32.25;;
25111;SDS011;13092;51.996;4.458;2023-03-30T04:57:39;38.10;;;31.85;;
25111;SDS011;13092;51.996;4.458;2023-03-30T05:00:10;34.95;;;31.20;;
25111;SDS011;13092;51.996;4.458;2023-03-30T05:02:39;36.75;;;31.75;;
25111;SDS011;13092;51.996;4.458;2023-03-30T05:05:08;39.45;;;32.15;;
25111;SDS011;13092;51.996;4.458;2023-03-30T05:07:36;35.72;;;31.98;;
25111;SDS011;13092;51.996;4.458;2023-03-30T05:10:06;41.20;;;31.98;;
25111;SDS011;13092;51.996;4.458;2023-03-30T05:12:34;35.92;;;31.75;;
25111;SDS011;13092;51.996;4.458;2023-03-30T05:15:03;36.00;;;31.20;;
25111;SDS011;13092;51.996;4.458;2023-03-30T05:17:32;40.53;;;31.55;;
25111;SDS011;13092;51.996;4.458;2023-03-30T05:20:00;34.95;;;31.40;;
25111;SDS011;13092;51.996;4.458;2023-03-30T05:22:33;40.30;;;32.33;;
25111;SDS011;13092;51.996;4.458;2023-03-30T05:25:02;43.47;;;32.70;;
25111;SDS011;13092;51.996;4.458;2023-03-30T05:27:32;35.35;;;31.90;;
25111;SDS011;13092;51.996;4.458;2023-03-30T05:30:01;35.58;;;31.90;;
25111;SDS011;13092;51.996;4.458;2023-03-30T05:32:29;34.65;;;30.83;;
25111;SDS011;13092;51.996;4.458;2023-03-30T05:34:58;38.88;;;31.85;;
25111;SDS011;13092;51.996;4.458;2023-03-30T05:37:26;35.63;;;31.88;;
25111;SDS011;13092;51.996;4.458;2023-03-30T05:39:55;36.38;;;32.40;;
25111;SDS011;13092;51.996;4.458;2023-03-30T05:42:23;39.35;;;31.33;;
25111;SDS011;13092;51.996;4.458;2023-03-30T05:44:53;36.72;;;32.00;;
25111;SDS011;13092;51.996;4.458;2023-03-30T05:47:22;39.22;;;31.77;;
25111;SDS011;13092;51.996;4.458;2023-03-30T05:49:50;36.67;;;32.33;;
25111;SDS011;13092;51.996;4.458;2023-03-30T05:52:20;40.42;;;31.48;;
25111;SDS011;13092;51.996;4.458;2023-03-30T05:54:49;35.33;;;31.67;;
25111;SDS011;13092;51.996;4.458;2023-03-30T05:57:17;38.05;;;32.10;;
25111;SDS011;13092;51.996;4.458;2023-03-30T05:59:46;39.10;;;31.83;;
25111;SDS011;13092;51.996;4.458;2023-03-30T06:02:16;37.83;;;30.80;;
25111;SDS011;13092;51.996;4.458;2023-03-30T06:04:45;36.70;;;30.85;;
25111;SDS011;13092;51.996;4.458;2023-03-30T06:07:13;36.83;;;31.52;;
25111;SDS011;13092;51.996;4.458;2023-03-30T06:09:43;35.22;;;31.50;;
25111;SDS011;13092;51.996;4.458;2023-03-30T06:12:11;37.47;;;31.10;;
25111;SDS011;13092;51.996;4.458;2023-03-30T06:14:39;35.42;;;31.15;;
25111;SDS011;13092;51.996;4.458;2023-03-30T06:17:10;40.58;;;30.45;;
25111;SDS011;13092;51.996;4.458;2023-03-30T06:19:42;41.10;;;31.50;;
25111;SDS011;13092;51.996;4.458;2023-03-30T06:22:10;42.33;;;30.83;;
25111;SDS011;13092;51.996;4.458;2023-03-30T06:24:39;40.45;;;31.25;;
25111;SDS011;13092;51.996;4.458;2023-03-30T06:27:07;33.78;;;30.40;;
25111;SDS011;13092;51.996;4.458;2023-03-30T06:29:35;38.63;;;30.65;;
25111;SDS011;13092;51.996;4.458;2023-03-30T06:32:03;39.35;;;31.23;;
25111;SDS011;13092;51.996;4.458;2023-03-30T06:34:32;37.20;;;30.77;;
25111;SDS011;13092;51.996;4.458;2023-03-30T06:37:05;39.95;;;31.88;;
25111;SDS011;13092;51.996;4.458;2023-03-30T06:39:34;35.15;;;31.50;;
25111;SDS011;13092;51.996;4.458;2023-03-30T06:42:03;37.53;;;32.40;;
25111;SDS011;13092;51.996;4.458;2023-03-30T06:44:31;35.15;;;31.25;;
25111;SDS011;13092;51.996;4.458;2023-03-30T06:47:00;43.22;;;32.10;;
25111;SDS011;13092;51.996;4.458;2023-03-30T06:49:28;38.75;;;31.95;;
25111;SDS011;13092;51.996;4.458;2023-03-30T06:51:57;37.45;;;32.00;;
25111;SDS011;13092;51.996;4.458;2023-03-30T06:54:31;39.35;;;30.98;;
25111;SDS011;13092;51.996;4.458;2023-03-30T06:57:00;40.97;;;31.52;;
25111;SDS011;13092;51.996;4.458;2023-03-30T06:59:31;36.65;;;32.42;;
25111;SDS011;13092;51.996;4.458;2023-03-30T07:02:00;39.47;;;32.92;;
25111;SDS011;13092;51.996;4.458;2023-03-30T07:04:28;44.17;;;32.85;;
25111;SDS011;13092;51.996;4.458;2023-03-30T07:06:57;43.40;;;31.80;;
25111;SDS011;13092;51.996;4.458;2023-03-30T07:09:25;46.35;;;33.28;;
25111;SDS011;13092;51.996;4.458;2023-03-30T07:11:55;38.80;;;32.33;;
25111;SDS011;13092;51.996;4.458;2023-03-30T07:14:23;38.50;;;32.20;;
25111;SDS011;13092;51.996;4.458;2023-03-30T07:16:51;45.22;;;32.03;;
25111;SDS011;13092;51.996;4.458;2023-03-30T07:19:20;47.85;;;32.15;;
25111;SDS011;13092;51.996;4.458;2023-03-30T07:21:49;42.22;;;31.83;;
25111;SDS011;13092;51.996;4.458;2023-03-30T07:24:17;47.95;;;33.20;;
25111;SDS011;13092;51.996;4.458;2023-03-30T07:26:46;43.75;;;32.38;;
25111;SDS011;13092;51.996;4.458;2023-03-30T07:29:15;54.05;;;31.80;;
25111;SDS011;13092;51.996;4.458;2023-03-30T07:31:43;54.08;;;33.80;;
25111;SDS011;13092;51.996;4.458;2023-03-30T07:34:12;41.53;;;32.30;;
25111;SDS011;13092;51.996;4.458;2023-03-30T07:36:40;43.53;;;32.25;;
25111;SDS011;13092;51.996;4.458;2023-03-30T07:39:08;44.85;;;31.38;;
25111;SDS011;13092;51.996;4.458;2023-03-30T07:41:36;45.72;;;31.58;;
25111;SDS011;13092;51.996;4.458;2023-03-30T07:44:05;43.40;;;32.33;;
25111;SDS011;13092;51.996;4.458;2023-03-30T07:46:38;46.85;;;32.50;;
25111;SDS011;13092;51.996;4.458;2023-03-30T07:49:06;47.75;;;33.03;;
25111;SDS011;13092;51.996;4.458;2023-03-30T07:51:34;39.20;;;32.20;;
25111;SDS011;13092;51.996;4.458;2023-03-30T07:54:03;43.00;;;33.00;;
25111;SDS011;13092;51.996;4.458;2023-03-30T07:56:32;52.08;;;32.78;;
25111;SDS011;13092;51.996;4.458;2023-03-30T07:59:04;40.65;;;31.77;;
25111;SDS011;13092;51.996;4.458;2023-03-30T08:01:33;44.05;;;31.88;;
25111;SDS011;13092;51.996;4.458;2023-03-30T08:04:07;38.50;;;32.25;;
25111;SDS011;13092;51.996;4.458;2023-03-30T08:06:36;43.67;;;33.03;;
25111;SDS011;13092;51.996;4.458;2023-03-30T08:09:05;43.13;;;33.45;;
25111;SDS011;13092;51.996;4.458;2023-03-30T08:11:33;44.83;;;33.05;;
25111;SDS011;13092;51.996;4.458;2023-03-30T08:14:01;45.85;;;33.03;;
25111;SDS011;13092;51.996;4.458;2023-03-30T08:16:30;51.97;;;33.03;;
25111;SDS011;13092;51.996;4.458;2023-03-30T08:19:02;44.92;;;33.10;;
25111;SDS011;13092;51.996;4.458;2023-03-30T08:21:31;45.28;;;33.53;;
25111;SDS011;13092;51.996;4.458;2023-03-30T08:24:00;47.55;;;33.08;;
25111;SDS011;13092;51.996;4.458;2023-03-30T08:26:28;49.70;;;34.05;;
25111;SDS011;13092;51.996;4.458;2023-03-30T08:28:57;46.80;;;33.22;;
25111;SDS011;13092;51.996;4.458;2023-03-30T08:31:25;47.25;;;34.10;;
25111;SDS011;13092;51.996;4.458;2023-03-30T08:33:53;41.50;;;34.28;;
25111;SDS011;13092;51.996;4.458;2023-03-30T08:36:21;48.25;;;34.80;;
25111;SDS011;13092;51.996;4.458;2023-03-30T08:38:52;39.83;;;34.78;;
25111;SDS011;13092;51.996;4.458;2023-03-30T08:41:28;49.55;;;34.72;;
25111;SDS011;13092;51.996;4.458;2023-03-30T08:44:09;43.03;;;33.60;;
25111;SDS011;13092;51.996;4.458;2023-03-30T08:46:41;47.53;;;34.38;;
25111;SDS011;13092;51.996;4.458;2023-03-30T08:49:13;46.47;;;33.90;;
25111;SDS011;13092;51.996;4.458;2023-03-30T08:51:46;60.70;;;35.55;;
25111;SDS011;13092;51.996;4.458;2023-03-30T08:54:18;48.58;;;33.45;;
25111;SDS011;13092;51.996;4.458;2023-03-30T08:56:54;46.05;;;34.03;;
25111;SDS011;13092;51.996;4.458;2023-03-30T08:59:34;45.78;;;33.70;;
25111;SDS011;13092;51.996;4.458;2023-03-30T09:02:12;52.50;;;35.00;;
25111;SDS011;13092;51.996;4.458;2023-03-30T09:04:50;50.97;;;34.33;;
25111;SDS011;13092;51.996;4.458;2023-03-30T09:07:27;44.80;;;33.92;;
25111;SDS011;13092;51.996;4.458;2023-03-30T09:09:59;48.88;;;35.03;;
25111;SDS011;13092;51.996;4.458;2023-03-30T09:12:31;41.47;;;34.33;;
25111;SDS011;13092;51.996;4.458;2023-03-30T09:15:07;49.30;;;34.45;;
25111;SDS011;13092;51.996;4.458;2023-03-30T09:17:40;53.33;;;35.95;;
25111;SDS011;13092;51.996;4.458;2023-03-30T09:20:12;41.72;;;33.05;;
25111;SDS011;13092;51.996;4.458;2023-03-30T09:22:46;44.30;;;36.42;;
25111;SDS011;13092;51.996;4.458;2023-03-30T09:25:18;47.40;;;34.85;;
25111;SDS011;13092;51.996;4.458;2023-03-30T09:27:54;58.42;;;37.45;;
25111;SDS011;13092;51.996;4.458;2023-03-30T09:30:33;45.55;;;35.97;;
25111;SDS011;13092;51.996;4.458;2023-03-30T09:33:11;43.85;;;36.22;;
25111;SDS011;13092;51.996;4.458;2023-03-30T09:35:55;41.03;;;34.33;;
25111;SDS011;13092;51.996;4.458;2023-03-30T09:38:32;40.13;;;35.15;;
25111;SDS011;13092;51.996;4.458;2023-03-30T09:41:10;40.58;;;36.05;;
25111;SDS011;13092;51.996;4.458;2023-03-30T09:43:47;55.95;;;36.92;;
25111;SDS011;13092;51.996;4.458;2023-03-30T09:46:17;42.00;;;37.60;;
25111;SDS011;13092;51.996;4.458;2023-03-30T09:48:46;46.35;;;37.60;;
25111;SDS011;13092;51.996;4.458;2023-03-30T09:51:20;49.28;;;37.50;;
25111;SDS011;13092;51.996;4.458;2023-03-30T09:53:50;44.90;;;37.53;;
25111;SDS011;13092;51.996;4.458;2023-03-30T09:56:28;43.45;;;38.60;;
25111;SDS011;13092;51.996;4.458;2023-03-30T09:59:17;42.38;;;38.08;;
25111;SDS011;13092;51.996;4.458;2023-03-30T10:01:47;46.60;;;37.35;;
25111;SDS011;13092;51.996;4.458;2023-03-30T10:04:15;43.38;;;38.63;;
25111;SDS011;13092;51.996;4.458;2023-03-30T10:06:45;42.45;;;37.65;;
25111;SDS011;13092;51.996;4.458;2023-03-30T10:09:16;42.33;;;37.90;;
25111;SDS011;13092;51.996;4.458;2023-03-30T10:11:49;47.10;;;39.00;;
25111;SDS011;13092;51.996;4.458;2023-03-30T10:14:29;48.20;;;38.80;;
25111;SDS011;13092;51.996;4.458;2023-03-30T10:17:00;45.58;;;39.80;;
25111;SDS011;13092;51.996;4.458;2023-03-30T10:19:30;50.85;;;39.72;;
25111;SDS011;13092;51.996;4.458;2023-03-30T10:22:09;44.72;;;40.20;;
25111;SDS011;13092;51.996;4.458;2023-03-30T10:24:47;50.97;;;41.42;;
25111;SDS011;13092;51.996;4.458;2023-03-30T10:27:18;49.40;;;41.78;;
25111;SDS011;13092;51.996;4.458;2023-03-30T10:29:54;45.90;;;41.08;;
25111;SDS011;13092;51.996;4.458;2023-03-30T10:32:23;45.78;;;40.85;;
25111;SDS011;13092;51.996;4.458;2023-03-30T10:34:56;45.13;;;40.67;;
25111;SDS011;13092;51.996;4.458;2023-03-30T10:37:30;43.13;;;39.05;;
25111;SDS011;13092;51.996;4.458;2023-03-30T10:40:02;46.92;;;39.60;;
25111;SDS011;13092;51.996;4.458;2023-03-30T10:42:43;44.92;;;40.03;;
25111;SDS011;13092;51.996;4.458;2023-03-30T10:45:14;45.70;;;40.45;;
25111;SDS011;13092;51.996;4.458;2023-03-30T10:47:48;44.25;;;39.30;;
25111;SDS011;13092;51.996;4.458;2023-03-30T10:50:30;44.53;;;39.85;;
25111;SDS011;13092;51.996;4.458;2023-03-30T10:53:10;44.80;;;39.92;;
25111;SDS011;13092;51.996;4.458;2023-03-30T10:55:51;44.03;;;39.50;;
25111;SDS011;13092;51.996;4.458;2023-03-30T10:58:34;45.75;;;40.58;;
25111;SDS011;13092;51.996;4.458;2023-03-30T11:01:23;43.25;;;38.75;;
25111;SDS011;13092;51.996;4.458;2023-03-30T11:03:57;46.33;;;39.35;;
25111;SDS011;13092;51.996;4.458;2023-03-30T11:06:49;44.65;;;40.13;;
25111;SDS011;13092;51.996;4.458;2023-03-30T11:09:23;45.47;;;39.47;;
25111;SDS011;13092;51.996;4.458;2023-03-30T11:11:56;44.80;;;40.20;;
25111;SDS011;13092;51.996;4.458;2023-03-30T11:14:35;48.13;;;42.08;;
25111;SDS011;13092;51.996;4.458;2023-03-30T11:17:11;44.95;;;40.35;;
25111;SDS011;13092;51.996;4.458;2023-03-30T11:19:48;49.13;;;40.33;;
25111;SDS011;13092;51.996;4.458;2023-03-30T11:22:25;45.85;;;41.15;;
25111;SDS011;13092;51.996;4.458;2023-03-30T11:27:38;47.13;;;42.17;;
25111;SDS011;13092;51.996;4.458;2023-03-30T11:30:37;48.38;;;41.78;;
25111;SDS011;13092;51.996;4.458;2023-03-30T11:33:17;49.10;;;40.47;;
25111;SDS011;13092;51.996;4.458;2023-03-30T11:46:36;46.72;;;38.58;;
25111;SDS011;13092;51.996;4.458;2023-03-30T11:49:20;44.28;;;38.30;;
25111;SDS011;13092;51.996;4.458;2023-03-30T11:52:02;46.38;;;38.17;;
25111;SDS011;13092;51.996;4.458;2023-03-30T11:54:44;50.53;;;38.20;;
25111;SDS011;13092;51.996;4.458;2023-03-30T11:57:36;40.95;;;36.63;;
25111;SDS011;13092;51.996;4.458;2023-03-30T12:00:18;50.30;;;37.17;;
25111;SDS011;13092;51.996;4.458;2023-03-30T12:02:56;48.10;;;36.83;;
25111;SDS011;13092;51.996;4.458;2023-03-30T12:05:36;47.22;;;35.72;;
25111;SDS011;13092;51.996;4.458;2023-03-30T12:08:11;43.30;;;36.53;;
25111;SDS011;13092;51.996;4.458;2023-03-30T12:10:58;44.13;;;35.88;;
25111;SDS011;13092;51.996;4.458;2023-03-30T12:13:31;44.40;;;35.38;;
25111;SDS011;13092;51.996;4.458;2023-03-30T12:16:16;47.95;;;34.53;;
25111;SDS011;13092;51.996;4.458;2023-03-30T12:36:39;43.70;;;34.60;;
25111;SDS011;13092;51.996;4.458;2023-03-30T12:39:10;55.17;;;35.08;;
25111;SDS011;13092;51.996;4.458;2023-03-30T12:41:46;58.67;;;37.28;;
25111;SDS011;13092;51.996;4.458;2023-03-30T12:44:28;50.17;;;34.60;;
25111;SDS011;13092;51.996;4.458;2023-03-30T12:47:27;46.88;;;35.45;;
25111;SDS011;13092;51.996;4.458;2023-03-30T12:50:10;44.28;;;35.30;;
25111;SDS011;13092;51.996;4.458;2023-03-30T12:52:56;41.45;;;36.42;;
25111;SDS011;13092;51.996;4.458;2023-03-30T12:55:39;52.45;;;36.08;;
25111;SDS011;13092;51.996;4.458;2023-03-30T12:58:15;45.60;;;36.25;;
25111;SDS011;13092;51.996;4.458;2023-03-30T13:01:04;45.90;;;36.08;;
25111;SDS011;13092;51.996;4.458;2023-03-30T13:03:45;45.78;;;36.25;;
25111;SDS011;13092;51.996;4.458;2023-03-30T13:06:21;51.22;;;36.45;;
25111;SDS011;13092;51.996;4.458;2023-03-30T13:08:55;57.35;;;36.63;;
25111;SDS011;13092;51.996;4.458;2023-03-30T13:11:41;55.30;;;36.95;;
25111;SDS011;13092;51.996;4.458;2023-03-30T13:14:14;44.22;;;37.10;;
25111;SDS011;13092;51.996;4.458;2023-03-30T13:17:12;48.05;;;36.60;;
25111;SDS011;13092;51.996;4.458;2023-03-30T13:19:44;47.67;;;37.60;;
25111;SDS011;13092;51.996;4.458;2023-03-30T13:22:27;46.50;;;37.00;;
25111;SDS011;13092;51.996;4.458;2023-03-30T13:25:06;49.47;;;37.30;;
25111;SDS011;13092;51.996;4.458;2023-03-30T13:27:57;46.83;;;38.13;;
25111;SDS011;13092;51.996;4.458;2023-03-30T13:30:27;42.00;;;37.25;;
25111;SDS011;13092;51.996;4.458;2023-03-30T13:32:58;44.95;;;38.33;;
25111;SDS011;13092;51.996;4.458;2023-03-30T13:35:39;53.13;;;39.30;;
25111;SDS011;13092;51.996;4.458;2023-03-30T13:38:32;45.72;;;37.00;;
25111;SDS011;13092;51.996;4.458;2023-03-30T13:41:41;41.58;;;37.38;;
25111;SDS011;13092;51.996;4.458;2023-03-30T13:44:21;44.50;;;38.28;;
25111;SDS011;13092;51.996;4.458;2023-03-30T13:47:02;46.72;;;38.92;;
25111;SDS011;13092;51.996;4.458;2023-03-30T13:49:45;45.67;;;39.00;;
25111;SDS011;13092;51.996;4.458;2023-03-30T13:52:26;44.58;;;37.92;;
25111;SDS011;13092;51.996;4.458;2023-03-30T13:54:57;42.47;;;38.28;;
25111;SDS011;13092;51.996;4.458;2023-03-30T13:57:32;46.25;;;39.10;;
25111;SDS011;13092;51.996;4.458;2023-03-30T14:00:05;43.60;;;38.95;;
25111;SDS011;13092;51.996;4.458;2023-03-30T14:02:38;47.60;;;38.53;;
25111;SDS011;13092;51.996;4.458;2023-03-30T14:05:11;46.53;;;37.60;;
25111;SDS011;13092;51.996;4.458;2023-03-30T14:07:40;45.40;;;38.97;;
25111;SDS011;13092;51.996;4.458;2023-03-30T14:10:13;44.25;;;39.45;;
25111;SDS011;13092;51.996;4.458;2023-03-30T14:12:47;44.17;;;39.58;;
25111;SDS011;13092;51.996;4.458;2023-03-30T14:15:20;48.60;;;40.80;;
25111;SDS011;13092;51.996;4.458;2023-03-30T14:17:52;44.00;;;39.30;;
25111;SDS011;13092;51.996;4.458;2023-03-30T14:20:27;44.83;;;39.97;;
25111;SDS011;13092;51.996;4.458;2023-03-30T14:23:06;47.78;;;39.42;;
25111;SDS011;13092;51.996;4.458;2023-03-30T14:25:41;42.30;;;37.90;;
25111;SDS011;13092;51.996;4.458;2023-03-30T14:28:13;45.28;;;38.92;;
25111;SDS011;13092;51.996;4.458;2023-03-30T14:30:49;43.30;;;38.85;;
25111;SDS011;13092;51.996;4.458;2023-03-30T14:33:18;42.75;;;38.03;;
25111;SDS011;13092;51.996;4.458;2023-03-30T14:35:48;45.17;;;38.85;;
25111;SDS011;13092;51.996;4.458;2023-03-30T14:38:20;44.80;;;39.92;;
25111;SDS011;13092;51.996;4.458;2023-03-30T14:40:51;45.03;;;39.05;;
25111;SDS011;13092;51.996;4.458;2023-03-30T14:43:26;44.30;;;38.25;;
25111;SDS011;13092;51.996;4.458;2023-03-30T14:45:57;47.70;;;38.90;;
25111;SDS011;13092;51.996;4.458;2023-03-30T14:48:30;44.28;;;39.28;;
25111;SDS011;13092;51.996;4.458;2023-03-30T14:51:00;43.65;;;38.67;;
25111;SDS011;13092;51.996;4.458;2023-03-30T14:53:29;42.55;;;38.03;;
25111;SDS011;13092;51.996;4.458;2023-03-30T14:55:58;42.88;;;38.53;;
25111;SDS011;13092;51.996;4.458;2023-03-30T14:58:30;43.78;;;39.67;;
25111;SDS011;13092;51.996;4.458;2023-03-30T15:00:59;44.50;;;39.80;;
25111;SDS011;13092;51.996;4.458;2023-03-30T15:03:35;42.00;;;37.90;;
25111;SDS011;13092;51.996;4.458;2023-03-30T15:06:05;42.20;;;37.75;;
25111;SDS011;13092;51.996;4.458;2023-03-30T15:08:35;43.60;;;38.05;;
25111;SDS011;13092;51.996;4.458;2023-03-30T15:11:06;42.47;;;38.03;;
25111;SDS011;13092;51.996;4.458;2023-03-30T15:13:40;42.85;;;38.38;;
25111;SDS011;13092;51.996;4.458;2023-03-30T15:16:15;41.28;;;37.17;;
25111;SDS011;13092;51.996;4.458;2023-03-30T15:18:46;41.35;;;37.47;;
25111;SDS011;13092;51.996;4.458;2023-03-30T15:21:16;41.83;;;37.90;;
25111;SDS011;13092;51.996;4.458;2023-03-30T15:23:48;41.92;;;38.00;;
25111;SDS011;13092;51.996;4.458;2023-03-30T15:26:17;39.40;;;35.88;;
25111;SDS011;13092;51.996;4.458;2023-03-30T15:28:49;41.67;;;37.53;;
25111;SDS011;13092;51.996;4.458;2023-03-30T15:31:19;41.10;;;37.42;;
25111;SDS011;13092;51.996;4.458;2023-03-30T15:33:49;40.47;;;36.92;;
25111;SDS011;13092;51.996;4.458;2023-03-30T15:36:23;41.50;;;37.28;;
25111;SDS011;13092;51.996;4.458;2023-03-30T15:38:55;41.55;;;37.40;;
25111;SDS011;13092;51.996;4.458;2023-03-30T15:44:17;38.40;;;34.72;;